sensor_id;sensor_type;location;lat;lon;timestamp;temperature;humidity
9006;DHT22;62284;50.702;7.140;2022-12-07T00:00:19;5.50;99.90
9006;DHT22;62284;50.702;7.140;2022-12-07T00:02:46;5.50;99.90
9006;DHT22;62284;50.702;7.140;2022-12-07T00:05:13;5.50;99.90
9006;DHT22;62284;50.702;7.140;2022-12-07T00:07:39;5.50;99.90
9006;DHT22;62284;50.702;7.140;2022-12-07T00:10:08;5.50;99.90
9006;DHT22;62284;50.702;7.140;2022-12-07T00:12:35;5.60;99.90
9006;DHT22;62284;50.702;7.140;2022-12-07T00:15:02;5.60;99.90
9006;DHT22;62284;50.702;7.140;2022-12-07T00:17:29;5.60;99.90
9006;DHT22;62284;50.702;7.140;2022-12-07T00:19:56;5.70;99.90
9006;DHT22;62284;50.702;7.140;2022-12-07T00:22:23;5.70;99.90
9006;DHT22;62284;50.702;7.140;2022-12-07T00:24:49;5.70;99.90
9006;DHT22;62284;50.702;7.140;2022-12-07T00:27:18;5.70;99.90
9006;DHT22;62284;50.702;7.140;2022-12-07T00:29:44;5.70;99.90
9006;DHT22;62284;50.702;7.140;2022-12-07T00:32:11;5.80;99.90
9006;DHT22;62284;50.702;7.140;2022-12-07T00:34:38;5.80;99.90
9006;DHT22;62284;50.702;7.140;2022-12-07T00:37:05;5.80;99.90
9006;DHT22;62284;50.702;7.140;2022-12-07T00:39:32;5.80;99.90
9006;DHT22;62284;50.702;7.140;2022-12-07T00:41:58;5.80;99.90
9006;DHT22;62284;50.702;7.140;2022-12-07T00:44:27;5.80;99.90
9006;DHT22;62284;50.702;7.140;2022-12-07T00:46:53;5.80;99.90
9006;DHT22;62284;50.702;7.140;2022-12-07T00:49:21;5.80;99.90
9006;DHT22;62284;50.702;7.140;2022-12-07T00:51:48;5.80;99.90
9006;DHT22;62284;50.702;7.140;2022-12-07T00:54:15;5.90;99.90
9006;DHT22;62284;50.702;7.140;2022-12-07T00:56:42;5.90;99.90
9006;DHT22;62284;50.702;7.140;2022-12-07T00:59:12;5.90;99.90
9006;DHT22;62284;50.702;7.140;2022-12-07T01:01:41;5.90;99.90
9006;DHT22;62284;50.702;7.140;2022-12-07T01:04:08;5.90;99.90
9006;DHT22;62284;50.702;7.140;2022-12-07T01:06:35;5.80;99.90
9006;DHT22;62284;50.702;7.140;2022-12-07T01:09:02;5.90;99.90
9006;DHT22;62284;50.702;7.140;2022-12-07T01:11:30;5.80;99.90
9006;DHT22;62284;50.702;7.140;2022-12-07T01:13:59;5.80;99.90
9006;DHT22;62284;50.702;7.140;2022-12-07T01:16:28;5.90;99.90
9006;DHT22;62284;50.702;7.140;2022-12-07T01:18:57;6.00;99.90
9006;DHT22;62284;50.702;7.140;2022-12-07T01:21:26;6.00;99.90
9006;DHT22;62284;50.702;7.140;2022-12-07T01:23:54;6.00;99.90
9006;DHT22;62284;50.702;7.140;2022-12-07T01:26:22;6.00;99.90
9006;DHT22;62284;50.702;7.140;2022-12-07T01:28:49;6.00;99.90
9006;DHT22;62284;50.702;7.140;2022-12-07T01:31:18;6.00;99.90
9006;DHT22;62284;50.702;7.140;2022-12-07T01:33:48;6.10;99.90
9006;DHT22;62284;50.702;7.140;2022-12-07T01:36:19;6.10;99.90
9006;DHT22;62284;50.702;7.140;2022-12-07T01:38:47;6.10;99.90
9006;DHT22;62284;50.702;7.140;2022-12-07T01:41:15;6.10;99.90
9006;DHT22;62284;50.702;7.140;2022-12-07T01:44:16;6.10;99.90
9006;DHT22;62284;50.702;7.140;2022-12-07T01:46:45;6.10;99.90
9006;DHT22;62284;50.702;7.140;2022-12-07T01:49:18;6.00;99.90
9006;DHT22;62284;50.702;7.140;2022-12-07T01:51:49;6.00;99.90
9006;DHT22;62284;50.702;7.140;2022-12-07T01:54:18;6.00;99.90
9006;DHT22;62284;50.702;7.140;2022-12-07T01:56:49;6.00;99.90
9006;DHT22;62284;50.702;7.140;2022-12-07T01:59:18;6.00;99.90
9006;DHT22;62284;50.702;7.140;2022-12-07T02:01:45;6.00;99.90
9006;DHT22;62284;50.702;7.140;2022-12-07T02:04:12;6.00;99.90
9006;DHT22;62284;50.702;7.140;2022-12-07T02:06:39;6.10;99.90
9006;DHT22;62284;50.702;7.140;2022-12-07T02:09:10;6.10;99.90
9006;DHT22;62284;50.702;7.140;2022-12-07T02:11:37;6.10;99.90
9006;DHT22;62284;50.702;7.140;2022-12-07T02:14:04;6.10;99.90
9006;DHT22;62284;50.702;7.140;2022-12-07T02:16:36;6.20;99.90
9006;DHT22;62284;50.702;7.140;2022-12-07T02:19:23;6.20;99.90
9006;DHT22;62284;50.702;7.140;2022-12-07T02:21:56;6.20;99.90
9006;DHT22;62284;50.702;7.140;2022-12-07T02:24:43;6.10;99.90
9006;DHT22;62284;50.702;7.140;2022-12-07T02:27:34;6.10;99.90
9006;DHT22;62284;50.702;7.140;2022-12-07T02:30:07;6.00;99.90
9006;DHT22;62284;50.702;7.140;2022-12-07T02:32:43;6.00;99.90
9006;DHT22;62284;50.702;7.140;2022-12-07T02:35:15;6.10;99.90
9006;DHT22;62284;50.702;7.140;2022-12-07T02:37:51;6.10;99.90
9006;DHT22;62284;50.702;7.140;2022-12-07T02:40:24;6.10;99.90
9006;DHT22;62284;50.702;7.140;2022-12-07T02:42:57;6.10;99.90
9006;DHT22;62284;50.702;7.140;2022-12-07T02:45:29;6.10;99.90
9006;DHT22;62284;50.702;7.140;2022-12-07T02:47:59;6.10;99.90
9006;DHT22;62284;50.702;7.140;2022-12-07T02:50:27;6.10;99.90
9006;DHT22;62284;50.702;7.140;2022-12-07T02:52:54;6.10;99.90
9006;DHT22;62284;50.702;7.140;2022-12-07T02:55:26;6.10;99.90
9006;DHT22;62284;50.702;7.140;2022-12-07T02:58:06;6.10;99.90
9006;DHT22;62284;50.702;7.140;2022-12-07T03:00:44;6.10;99.90
9006;DHT22;62284;50.702;7.140;2022-12-07T03:03:14;6.10;99.90
9006;DHT22;62284;50.702;7.140;2022-12-07T03:05:53;6.10;99.90
9006;DHT22;62284;50.702;7.140;2022-12-07T03:08:26;6.20;99.90
9006;DHT22;62284;50.702;7.140;2022-12-07T03:10:59;6.20;99.90
9006;DHT22;62284;50.702;7.140;2022-12-07T03:13:30;6.20;99.90
9006;DHT22;62284;50.702;7.140;2022-12-07T03:16:07;6.20;99.90
9006;DHT22;62284;50.702;7.140;2022-12-07T03:18:38;6.20;99.90
9006;DHT22;62284;50.702;7.140;2022-12-07T03:21:11;6.10;99.90
9006;DHT22;62284;50.702;7.140;2022-12-07T03:23:43;6.10;99.90
9006;DHT22;62284;50.702;7.140;2022-12-07T03:26:12;6.20;99.90
9006;DHT22;62284;50.702;7.140;2022-12-07T03:28:43;6.10;99.90
9006;DHT22;62284;50.702;7.140;2022-12-07T03:31:16;6.10;99.90
9006;DHT22;62284;50.702;7.140;2022-12-07T03:33:51;6.00;99.90
9006;DHT22;62284;50.702;7.140;2022-12-07T03:36:23;6.00;99.90
9006;DHT22;62284;50.702;7.140;2022-12-07T03:38:55;6.00;99.90
9006;DHT22;62284;50.702;7.140;2022-12-07T03:41:28;6.10;99.90
9006;DHT22;62284;50.702;7.140;2022-12-07T03:43:56;6.20;99.90
9006;DHT22;62284;50.702;7.140;2022-12-07T03:46:32;6.10;99.90
9006;DHT22;62284;50.702;7.140;2022-12-07T03:49:07;6.10;99.90
9006;DHT22;62284;50.702;7.140;2022-12-07T03:51:40;6.10;99.90
9006;DHT22;62284;50.702;7.140;2022-12-07T03:54:13;6.10;99.90
9006;DHT22;62284;50.702;7.140;2022-12-07T03:56:42;6.00;99.90
9006;DHT22;62284;50.702;7.140;2022-12-07T03:59:11;6.00;99.90
9006;DHT22;62284;50.702;7.140;2022-12-07T04:01:42;6.00;99.90
9006;DHT22;62284;50.702;7.140;2022-12-07T04:04:09;5.90;99.90
9006;DHT22;62284;50.702;7.140;2022-12-07T04:06:36;6.00;99.90
9006;DHT22;62284;50.702;7.140;2022-12-07T04:09:03;6.00;99.90
9006;DHT22;62284;50.702;7.140;2022-12-07T04:11:30;6.00;99.90
9006;DHT22;62284;50.702;7.140;2022-12-07T04:13:57;6.00;99.90
9006;DHT22;62284;50.702;7.140;2022-12-07T04:16:42;6.00;99.90
9006;DHT22;62284;50.702;7.140;2022-12-07T04:19:09;6.00;99.90
9006;DHT22;62284;50.702;7.140;2022-12-07T04:21:36;6.10;99.90
9006;DHT22;62284;50.702;7.140;2022-12-07T04:24:04;6.10;99.90
9006;DHT22;62284;50.702;7.140;2022-12-07T04:26:31;6.00;99.90
9006;DHT22;62284;50.702;7.140;2022-12-07T04:28:57;6.10;99.90
9006;DHT22;62284;50.702;7.140;2022-12-07T04:31:24;6.00;99.90
9006;DHT22;62284;50.702;7.140;2022-12-07T04:33:52;6.10;99.90
9006;DHT22;62284;50.702;7.140;2022-12-07T04:36:19;6.10;99.90
9006;DHT22;62284;50.702;7.140;2022-12-07T04:38:46;6.10;99.90
9006;DHT22;62284;50.702;7.140;2022-12-07T04:41:13;6.10;99.90
9006;DHT22;62284;50.702;7.140;2022-12-07T04:43:40;6.00;99.90
9006;DHT22;62284;50.702;7.140;2022-12-07T04:46:07;6.00;99.90
9006;DHT22;62284;50.702;7.140;2022-12-07T04:48:34;6.00;99.90
9006;DHT22;62284;50.702;7.140;2022-12-07T04:51:04;6.10;99.90
9006;DHT22;62284;50.702;7.140;2022-12-07T04:53:31;6.10;99.90
9006;DHT22;62284;50.702;7.140;2022-12-07T04:55:57;6.10;99.90
9006;DHT22;62284;50.702;7.140;2022-12-07T04:58:26;6.10;99.90
9006;DHT22;62284;50.702;7.140;2022-12-07T05:00:54;6.10;99.90
9006;DHT22;62284;50.702;7.140;2022-12-07T05:03:21;6.10;99.90
9006;DHT22;62284;50.702;7.140;2022-12-07T05:05:48;6.00;99.90
9006;DHT22;62284;50.702;7.140;2022-12-07T05:08:16;6.00;99.90
9006;DHT22;62284;50.702;7.140;2022-12-07T05:10:43;6.00;99.90
9006;DHT22;62284;50.702;7.140;2022-12-07T05:13:10;6.10;99.90
9006;DHT22;62284;50.702;7.140;2022-12-07T05:15:36;6.00;99.90
9006;DHT22;62284;50.702;7.140;2022-12-07T05:18:03;6.00;99.90
9006;DHT22;62284;50.702;7.140;2022-12-07T05:20:30;6.00;99.90
9006;DHT22;62284;50.702;7.140;2022-12-07T05:22:57;6.00;99.90
9006;DHT22;62284;50.702;7.140;2022-12-07T05:25:26;6.00;99.90
9006;DHT22;62284;50.702;7.140;2022-12-07T05:27:54;5.90;99.90
9006;DHT22;62284;50.702;7.140;2022-12-07T05:30:21;5.90;99.90
9006;DHT22;62284;50.702;7.140;2022-12-07T05:32:48;5.90;99.90
9006;DHT22;62284;50.702;7.140;2022-12-07T05:35:15;5.90;99.90
9006;DHT22;62284;50.702;7.140;2022-12-07T05:37:42;6.00;99.90
9006;DHT22;62284;50.702;7.140;2022-12-07T05:40:10;6.10;99.90
9006;DHT22;62284;50.702;7.140;2022-12-07T05:42:38;6.00;99.90
9006;DHT22;62284;50.702;7.140;2022-12-07T05:45:07;6.00;99.90
9006;DHT22;62284;50.702;7.140;2022-12-07T05:47:34;6.10;99.90
9006;DHT22;62284;50.702;7.140;2022-12-07T05:50:01;6.00;99.90
9006;DHT22;62284;50.702;7.140;2022-12-07T05:52:28;5.90;99.90
9006;DHT22;62284;50.702;7.140;2022-12-07T05:54:54;6.00;99.90
9006;DHT22;62284;50.702;7.140;2022-12-07T05:57:21;6.00;99.90
9006;DHT22;62284;50.702;7.140;2022-12-07T05:59:49;6.10;99.90
9006;DHT22;62284;50.702;7.140;2022-12-07T06:02:16;6.10;99.90
9006;DHT22;62284;50.702;7.140;2022-12-07T06:04:44;6.10;99.90
9006;DHT22;62284;50.702;7.140;2022-12-07T06:07:13;6.10;99.90
9006;DHT22;62284;50.702;7.140;2022-12-07T06:09:40;6.10;99.90
9006;DHT22;62284;50.702;7.140;2022-12-07T06:12:10;6.10;99.90
9006;DHT22;62284;50.702;7.140;2022-12-07T06:14:56;6.00;99.90
9006;DHT22;62284;50.702;7.140;2022-12-07T06:17:23;6.00;99.90
9006;DHT22;62284;50.702;7.140;2022-12-07T06:19:51;6.00;99.90
9006;DHT22;62284;50.702;7.140;2022-12-07T06:22:18;6.00;99.90
9006;DHT22;62284;50.702;7.140;2022-12-07T06:24:44;6.00;99.90
9006;DHT22;62284;50.702;7.140;2022-12-07T06:27:11;6.00;99.90
9006;DHT22;62284;50.702;7.140;2022-12-07T06:29:38;6.10;99.90
9006;DHT22;62284;50.702;7.140;2022-12-07T06:32:06;6.10;99.90
9006;DHT22;62284;50.702;7.140;2022-12-07T06:34:33;6.10;99.90
9006;DHT22;62284;50.702;7.140;2022-12-07T06:37:00;6.10;99.90
9006;DHT22;62284;50.702;7.140;2022-12-07T06:39:28;6.10;99.90
9006;DHT22;62284;50.702;7.140;2022-12-07T06:41:55;6.10;99.90
9006;DHT22;62284;50.702;7.140;2022-12-07T06:44:23;6.00;99.90
9006;DHT22;62284;50.702;7.140;2022-12-07T06:46:51;5.90;99.90
9006;DHT22;62284;50.702;7.140;2022-12-07T06:49:19;5.90;99.90
9006;DHT22;62284;50.702;7.140;2022-12-07T06:51:46;5.90;99.90
9006;DHT22;62284;50.702;7.140;2022-12-07T06:54:14;5.90;99.90
9006;DHT22;62284;50.702;7.140;2022-12-07T06:56:42;5.90;99.90
9006;DHT22;62284;50.702;7.140;2022-12-07T06:59:09;5.80;99.90
9006;DHT22;62284;50.702;7.140;2022-12-07T07:01:36;5.80;99.90
9006;DHT22;62284;50.702;7.140;2022-12-07T07:04:03;6.10;99.90
9006;DHT22;62284;50.702;7.140;2022-12-07T07:06:31;5.90;99.90
9006;DHT22;62284;50.702;7.140;2022-12-07T07:08:58;5.80;99.90
9006;DHT22;62284;50.702;7.140;2022-12-07T07:11:25;5.70;99.90
9006;DHT22;62284;50.702;7.140;2022-12-07T07:13:52;5.70;99.90
9006;DHT22;62284;50.702;7.140;2022-12-07T07:16:22;5.70;99.90
9006;DHT22;62284;50.702;7.140;2022-12-07T07:18:49;5.70;99.90
9006;DHT22;62284;50.702;7.140;2022-12-07T07:21:16;5.80;99.90
9006;DHT22;62284;50.702;7.140;2022-12-07T07:23:44;5.70;99.90
9006;DHT22;62284;50.702;7.140;2022-12-07T07:26:11;5.70;99.90
9006;DHT22;62284;50.702;7.140;2022-12-07T07:28:38;5.80;99.90
9006;DHT22;62284;50.702;7.140;2022-12-07T07:31:05;5.80;99.90
9006;DHT22;62284;50.702;7.140;2022-12-07T07:33:32;5.80;99.90
9006;DHT22;62284;50.702;7.140;2022-12-07T07:35:59;5.80;99.90
9006;DHT22;62284;50.702;7.140;2022-12-07T07:38:25;5.80;99.90
9006;DHT22;62284;50.702;7.140;2022-12-07T07:40:54;5.80;99.90
9006;DHT22;62284;50.702;7.140;2022-12-07T07:43:20;5.90;99.90
9006;DHT22;62284;50.702;7.140;2022-12-07T07:45:47;6.00;99.90
9006;DHT22;62284;50.702;7.140;2022-12-07T07:48:14;5.90;99.90
9006;DHT22;62284;50.702;7.140;2022-12-07T07:50:41;5.90;99.90
9006;DHT22;62284;50.702;7.140;2022-12-07T07:53:08;5.90;99.90
9006;DHT22;62284;50.702;7.140;2022-12-07T07:55:34;5.90;99.90
9006;DHT22;62284;50.702;7.140;2022-12-07T07:58:03;6.00;99.90
9006;DHT22;62284;50.702;7.140;2022-12-07T08:00:29;6.00;99.90
9006;DHT22;62284;50.702;7.140;2022-12-07T08:02:56;6.10;99.90
9006;DHT22;62284;50.702;7.140;2022-12-07T08:05:24;6.10;99.90
9006;DHT22;62284;50.702;7.140;2022-12-07T08:07:51;6.10;99.90
9006;DHT22;62284;50.702;7.140;2022-12-07T08:10:18;6.00;99.90
9006;DHT22;62284;50.702;7.140;2022-12-07T08:12:45;6.10;99.90
9006;DHT22;62284;50.702;7.140;2022-12-07T08:15:31;6.10;99.90
9006;DHT22;62284;50.702;7.140;2022-12-07T08:17:58;6.10;99.90
9006;DHT22;62284;50.702;7.140;2022-12-07T08:20:25;6.10;99.90
9006;DHT22;62284;50.702;7.140;2022-12-07T08:22:52;6.00;99.90
9006;DHT22;62284;50.702;7.140;2022-12-07T08:25:19;6.00;99.90
9006;DHT22;62284;50.702;7.140;2022-12-07T08:27:46;6.00;99.90
9006;DHT22;62284;50.702;7.140;2022-12-07T08:30:13;6.00;99.90
9006;DHT22;62284;50.702;7.140;2022-12-07T08:32:42;5.90;99.90
9006;DHT22;62284;50.702;7.140;2022-12-07T08:35:10;5.90;99.90
9006;DHT22;62284;50.702;7.140;2022-12-07T08:37:37;5.90;99.90
9006;DHT22;62284;50.702;7.140;2022-12-07T08:40:06;6.00;99.90
9006;DHT22;62284;50.702;7.140;2022-12-07T08:42:34;6.10;99.90
9006;DHT22;62284;50.702;7.140;2022-12-07T08:45:06;6.20;99.90
9006;DHT22;62284;50.702;7.140;2022-12-07T08:47:33;6.40;99.90
9006;DHT22;62284;50.702;7.140;2022-12-07T08:50:02;6.50;99.90
9006;DHT22;62284;50.702;7.140;2022-12-07T08:52:30;6.50;99.90
9006;DHT22;62284;50.702;7.140;2022-12-07T08:54:58;6.40;99.90
9006;DHT22;62284;50.702;7.140;2022-12-07T08:57:26;6.60;99.90
9006;DHT22;62284;50.702;7.140;2022-12-07T08:59:54;6.60;99.90
9006;DHT22;62284;50.702;7.140;2022-12-07T09:02:21;6.70;99.90
9006;DHT22;62284;50.702;7.140;2022-12-07T09:04:48;6.70;99.90
9006;DHT22;62284;50.702;7.140;2022-12-07T09:07:16;6.70;99.90
9006;DHT22;62284;50.702;7.140;2022-12-07T09:09:43;6.70;99.90
9006;DHT22;62284;50.702;7.140;2022-12-07T09:12:10;6.80;99.90
9006;DHT22;62284;50.702;7.140;2022-12-07T09:14:37;6.70;99.90
9006;DHT22;62284;50.702;7.140;2022-12-07T09:17:07;6.80;99.90
9006;DHT22;62284;50.702;7.140;2022-12-07T09:19:35;6.90;99.90
9006;DHT22;62284;50.702;7.140;2022-12-07T09:22:02;6.80;99.90
9006;DHT22;62284;50.702;7.140;2022-12-07T09:24:31;6.90;99.90
9006;DHT22;62284;50.702;7.140;2022-12-07T09:26:58;7.10;99.90
9006;DHT22;62284;50.702;7.140;2022-12-07T09:29:25;7.20;99.90
9006;DHT22;62284;50.702;7.140;2022-12-07T09:31:52;7.30;99.90
9006;DHT22;62284;50.702;7.140;2022-12-07T09:34:19;7.30;99.90
9006;DHT22;62284;50.702;7.140;2022-12-07T09:36:46;7.50;99.90
9006;DHT22;62284;50.702;7.140;2022-12-07T09:39:13;7.50;99.90
9006;DHT22;62284;50.702;7.140;2022-12-07T09:41:44;7.50;99.90
9006;DHT22;62284;50.702;7.140;2022-12-07T09:44:12;7.60;99.90
9006;DHT22;62284;50.702;7.140;2022-12-07T09:46:42;7.50;99.90
9006;DHT22;62284;50.702;7.140;2022-12-07T09:49:12;7.40;99.90
9006;DHT22;62284;50.702;7.140;2022-12-07T09:51:40;7.30;99.90
9006;DHT22;62284;50.702;7.140;2022-12-07T09:54:09;7.30;99.90
9006;DHT22;62284;50.702;7.140;2022-12-07T09:56:39;7.20;99.90
9006;DHT22;62284;50.702;7.140;2022-12-07T09:59:13;7.40;99.90
9006;DHT22;62284;50.702;7.140;2022-12-07T10:01:40;7.60;99.90
9006;DHT22;62284;50.702;7.140;2022-12-07T10:04:11;7.60;99.90
9006;DHT22;62284;50.702;7.140;2022-12-07T10:06:40;7.70;99.90
9006;DHT22;62284;50.702;7.140;2022-12-07T10:09:11;7.80;99.90
9006;DHT22;62284;50.702;7.140;2022-12-07T10:12:04;7.80;99.90
9006;DHT22;62284;50.702;7.140;2022-12-07T10:14:36;8.00;99.90
9006;DHT22;62284;50.702;7.140;2022-12-07T10:17:31;8.00;99.90
9006;DHT22;62284;50.702;7.140;2022-12-07T10:20:26;8.00;99.90
9006;DHT22;62284;50.702;7.140;2022-12-07T10:22:59;7.80;99.90
9006;DHT22;62284;50.702;7.140;2022-12-07T10:25:29;7.90;99.90
9006;DHT22;62284;50.702;7.140;2022-12-07T10:28:00;8.20;99.90
9006;DHT22;62284;50.702;7.140;2022-12-07T10:30:29;9.90;99.90
9006;DHT22;62284;50.702;7.140;2022-12-07T10:32:56;10.70;99.80
9006;DHT22;62284;50.702;7.140;2022-12-07T10:35:25;10.60;99.60
9006;DHT22;62284;50.702;7.140;2022-12-07T10:37:57;10.50;98.90
9006;DHT22;62284;50.702;7.140;2022-12-07T10:40:30;9.80;99.80
9006;DHT22;62284;50.702;7.140;2022-12-07T10:43:04;9.30;99.90
9006;DHT22;62284;50.702;7.140;2022-12-07T10:45:33;9.20;99.90
9006;DHT22;62284;50.702;7.140;2022-12-07T10:48:08;9.10;99.90
9006;DHT22;62284;50.702;7.140;2022-12-07T10:51:01;9.10;99.90
9006;DHT22;62284;50.702;7.140;2022-12-07T10:53:40;9.20;99.90
9006;DHT22;62284;50.702;7.140;2022-12-07T10:56:35;9.10;99.90
9006;DHT22;62284;50.702;7.140;2022-12-07T10:59:28;8.90;99.90
9006;DHT22;62284;50.702;7.140;2022-12-07T11:02:10;8.90;99.90
9006;DHT22;62284;50.702;7.140;2022-12-07T11:04:59;8.80;99.90
9006;DHT22;62284;50.702;7.140;2022-12-07T11:07:38;8.90;99.90
9006;DHT22;62284;50.702;7.140;2022-12-07T11:10:10;8.90;99.90
9006;DHT22;62284;50.702;7.140;2022-12-07T11:13:04;8.90;99.90
9006;DHT22;62284;50.702;7.140;2022-12-07T11:15:51;8.90;99.90
9006;DHT22;62284;50.702;7.140;2022-12-07T11:18:27;8.80;99.90
9006;DHT22;62284;50.702;7.140;2022-12-07T11:21:06;8.60;99.90
9006;DHT22;62284;50.702;7.140;2022-12-07T11:23:44;8.60;99.90
9006;DHT22;62284;50.702;7.140;2022-12-07T11:26:19;8.50;99.90
9006;DHT22;62284;50.702;7.140;2022-12-07T11:29:03;8.60;99.90
9006;DHT22;62284;50.702;7.140;2022-12-07T11:31:38;8.70;99.90
9006;DHT22;62284;50.702;7.140;2022-12-07T11:34:16;9.00;99.90
9006;DHT22;62284;50.702;7.140;2022-12-07T11:36:46;9.10;99.90
9006;DHT22;62284;50.702;7.140;2022-12-07T11:39:23;9.40;99.90
9006;DHT22;62284;50.702;7.140;2022-12-07T11:41:55;10.30;99.90
9006;DHT22;62284;50.702;7.140;2022-12-07T11:44:30;10.90;99.40
9006;DHT22;62284;50.702;7.140;2022-12-07T11:47:02;11.10;97.90
9006;DHT22;62284;50.702;7.140;2022-12-07T11:49:41;10.80;97.30
9006;DHT22;62284;50.702;7.140;2022-12-07T11:52:17;10.50;97.60
9006;DHT22;62284;50.702;7.140;2022-12-07T11:54:45;10.50;97.70
9006;DHT22;62284;50.702;7.140;2022-12-07T11:57:17;10.20;97.10
9006;DHT22;62284;50.702;7.140;2022-12-07T11:59:49;10.10;98.40
9006;DHT22;62284;50.702;7.140;2022-12-07T12:02:20;10.30;98.70
9006;DHT22;62284;50.702;7.140;2022-12-07T12:04:55;10.30;96.30
9006;DHT22;62284;50.702;7.140;2022-12-07T12:07:26;10.00;97.40
9006;DHT22;62284;50.702;7.140;2022-12-07T12:09:56;9.70;98.90
9006;DHT22;62284;50.702;7.140;2022-12-07T12:12:50;9.80;98.50
9006;DHT22;62284;50.702;7.140;2022-12-07T12:15:31;9.50;97.90
9006;DHT22;62284;50.702;7.140;2022-12-07T12:18:36;9.20;98.80
9006;DHT22;62284;50.702;7.140;2022-12-07T12:21:09;9.10;99.30
9006;DHT22;62284;50.702;7.140;2022-12-07T12:23:42;8.80;99.80
9006;DHT22;62284;50.702;7.140;2022-12-07T12:26:16;9.00;99.80
9006;DHT22;62284;50.702;7.140;2022-12-07T12:28:52;9.20;99.50
9006;DHT22;62284;50.702;7.140;2022-12-07T12:31:33;9.40;98.70
9006;DHT22;62284;50.702;7.140;2022-12-07T12:34:02;9.40;98.70
9006;DHT22;62284;50.702;7.140;2022-12-07T12:36:45;9.30;98.50
9006;DHT22;62284;50.702;7.140;2022-12-07T12:39:14;9.20;98.40
9006;DHT22;62284;50.702;7.140;2022-12-07T12:42:05;8.90;99.00
9006;DHT22;62284;50.702;7.140;2022-12-07T12:47:56;8.40;99.90
9006;DHT22;62284;50.702;7.140;2022-12-07T12:50:26;8.30;99.90
9006;DHT22;62284;50.702;7.140;2022-12-07T12:53:13;8.10;99.90
9006;DHT22;62284;50.702;7.140;2022-12-07T12:56:15;8.10;99.90
9006;DHT22;62284;50.702;7.140;2022-12-07T12:58:44;8.00;99.90
9006;DHT22;62284;50.702;7.140;2022-12-07T13:01:33;8.10;99.90
9006;DHT22;62284;50.702;7.140;2022-12-07T13:04:20;8.40;99.90
9006;DHT22;62284;50.702;7.140;2022-12-07T13:06:48;8.20;99.90
9006;DHT22;62284;50.702;7.140;2022-12-07T13:09:23;8.20;99.90
9006;DHT22;62284;50.702;7.140;2022-12-07T13:12:01;8.30;99.90
9006;DHT22;62284;50.702;7.140;2022-12-07T13:18:01;8.20;99.90
9006;DHT22;62284;50.702;7.140;2022-12-07T13:20:46;8.10;99.90
9006;DHT22;62284;50.702;7.140;2022-12-07T13:23:18;8.10;99.90
9006;DHT22;62284;50.702;7.140;2022-12-07T13:25:53;8.00;99.90
9006;DHT22;62284;50.702;7.140;2022-12-07T13:28:22;7.80;99.90
9006;DHT22;62284;50.702;7.140;2022-12-07T13:31:18;7.70;99.90
9006;DHT22;62284;50.702;7.140;2022-12-07T13:33:47;7.80;99.90
9006;DHT22;62284;50.702;7.140;2022-12-07T13:36:22;7.80;99.90
9006;DHT22;62284;50.702;7.140;2022-12-07T13:38:55;7.90;99.90
9006;DHT22;62284;50.702;7.140;2022-12-07T13:41:25;7.80;99.90
9006;DHT22;62284;50.702;7.140;2022-12-07T13:43:59;7.70;99.90
9006;DHT22;62284;50.702;7.140;2022-12-07T13:46:33;7.80;99.90
9006;DHT22;62284;50.702;7.140;2022-12-07T13:49:19;7.90;99.90
9006;DHT22;62284;50.702;7.140;2022-12-07T13:51:47;7.90;99.90
9006;DHT22;62284;50.702;7.140;2022-12-07T13:54:14;7.90;99.90
9006;DHT22;62284;50.702;7.140;2022-12-07T13:56:42;8.00;99.90
9006;DHT22;62284;50.702;7.140;2022-12-07T13:59:14;8.00;99.90
9006;DHT22;62284;50.702;7.140;2022-12-07T14:01:43;7.90;99.90
9006;DHT22;62284;50.702;7.140;2022-12-07T14:04:31;7.80;99.90
9006;DHT22;62284;50.702;7.140;2022-12-07T14:06:58;7.80;99.90
9006;DHT22;62284;50.702;7.140;2022-12-07T14:09:27;7.60;99.90
9006;DHT22;62284;50.702;7.140;2022-12-07T14:11:57;7.60;99.90
9006;DHT22;62284;50.702;7.140;2022-12-07T14:14:26;7.60;99.90
9006;DHT22;62284;50.702;7.140;2022-12-07T14:16:59;7.60;99.90
9006;DHT22;62284;50.702;7.140;2022-12-07T14:19:42;7.40;99.90
9006;DHT22;62284;50.702;7.140;2022-12-07T14:22:19;7.30;99.90
9006;DHT22;62284;50.702;7.140;2022-12-07T14:24:47;7.20;99.90
9006;DHT22;62284;50.702;7.140;2022-12-07T14:27:20;7.20;99.90
9006;DHT22;62284;50.702;7.140;2022-12-07T14:29:47;7.20;99.90
9006;DHT22;62284;50.702;7.140;2022-12-07T14:32:23;7.20;99.90
9006;DHT22;62284;50.702;7.140;2022-12-07T14:35:08;7.20;99.90
9006;DHT22;62284;50.702;7.140;2022-12-07T14:37:36;7.10;99.90
9006;DHT22;62284;50.702;7.140;2022-12-07T14:40:04;7.10;99.90
9006;DHT22;62284;50.702;7.140;2022-12-07T14:42:33;6.90;99.90
9006;DHT22;62284;50.702;7.140;2022-12-07T14:45:00;6.80;99.90
9006;DHT22;62284;50.702;7.140;2022-12-07T14:47:27;6.80;99.90
9006;DHT22;62284;50.702;7.140;2022-12-07T14:49:54;6.70;99.90
9006;DHT22;62284;50.702;7.140;2022-12-07T14:52:23;6.80;99.90
9006;DHT22;62284;50.702;7.140;2022-12-07T14:54:51;6.80;99.90
9006;DHT22;62284;50.702;7.140;2022-12-07T14:57:18;6.80;99.90
9006;DHT22;62284;50.702;7.140;2022-12-07T14:59:46;6.90;99.90
9006;DHT22;62284;50.702;7.140;2022-12-07T15:02:14;6.90;99.90
9006;DHT22;62284;50.702;7.140;2022-12-07T15:04:41;7.00;99.90
9006;DHT22;62284;50.702;7.140;2022-12-07T15:07:14;7.00;99.90
9006;DHT22;62284;50.702;7.140;2022-12-07T15:09:42;7.00;99.90
9006;DHT22;62284;50.702;7.140;2022-12-07T15:12:09;6.90;99.90
9006;DHT22;62284;50.702;7.140;2022-12-07T15:14:36;6.90;99.90
9006;DHT22;62284;50.702;7.140;2022-12-07T15:17:04;6.90;99.90
9006;DHT22;62284;50.702;7.140;2022-12-07T15:19:31;6.70;99.90
9006;DHT22;62284;50.702;7.140;2022-12-07T15:21:58;6.70;99.90
9006;DHT22;62284;50.702;7.140;2022-12-07T15:24:25;6.80;99.90
9006;DHT22;62284;50.702;7.140;2022-12-07T15:26:52;6.80;99.90
9006;DHT22;62284;50.702;7.140;2022-12-07T15:29:19;6.80;99.90
9006;DHT22;62284;50.702;7.140;2022-12-07T15:31:48;6.80;99.90
9006;DHT22;62284;50.702;7.140;2022-12-07T15:34:16;6.80;99.90
9006;DHT22;62284;50.702;7.140;2022-12-07T15:36:43;6.80;99.90
9006;DHT22;62284;50.702;7.140;2022-12-07T15:39:10;6.80;99.90
9006;DHT22;62284;50.702;7.140;2022-12-07T15:41:37;6.80;99.90
9006;DHT22;62284;50.702;7.140;2022-12-07T15:44:04;6.80;99.90
9006;DHT22;62284;50.702;7.140;2022-12-07T15:46:48;6.70;99.90
9006;DHT22;62284;50.702;7.140;2022-12-07T15:49:18;6.70;99.90
9006;DHT22;62284;50.702;7.140;2022-12-07T15:51:45;6.70;99.90
9006;DHT22;62284;50.702;7.140;2022-12-07T15:54:18;6.70;99.90
9006;DHT22;62284;50.702;7.140;2022-12-07T15:56:45;6.70;99.90
9006;DHT22;62284;50.702;7.140;2022-12-07T15:59:12;6.70;99.90
9006;DHT22;62284;50.702;7.140;2022-12-07T16:01:39;6.70;99.90
9006;DHT22;62284;50.702;7.140;2022-12-07T16:04:06;6.80;99.90
9006;DHT22;62284;50.702;7.140;2022-12-07T16:06:34;6.70;99.90
9006;DHT22;62284;50.702;7.140;2022-12-07T16:09:01;6.70;99.90
9006;DHT22;62284;50.702;7.140;2022-12-07T16:11:28;6.60;99.90
9006;DHT22;62284;50.702;7.140;2022-12-07T16:13:55;6.60;99.90
9006;DHT22;62284;50.702;7.140;2022-12-07T16:16:22;6.50;99.90
9006;DHT22;62284;50.702;7.140;2022-12-07T16:18:49;6.50;99.90
9006;DHT22;62284;50.702;7.140;2022-12-07T16:21:17;6.50;99.90
9006;DHT22;62284;50.702;7.140;2022-12-07T16:23:46;6.50;99.90
9006;DHT22;62284;50.702;7.140;2022-12-07T16:26:14;6.50;99.90
9006;DHT22;62284;50.702;7.140;2022-12-07T16:28:42;6.60;99.90
9006;DHT22;62284;50.702;7.140;2022-12-07T16:31:11;6.60;99.90